sensor_id;sensor_type;location;lat;lon;timestamp;P1;durP1;ratioP1;P2;durP2;ratioP2
21733;SDS011;11029;47.820;10.534;2022-08-07T00:02:11;14.30;;;12.57;;
21733;SDS011;11029;47.820;10.534;2022-08-07T00:04:57;15.20;;;12.10;;
21733;SDS011;11029;47.820;10.534;2022-08-07T00:07:24;14.40;;;12.70;;
21733;SDS011;11029;47.820;10.534;2022-08-07T00:09:52;18.10;;;13.65;;
21733;SDS011;11029;47.820;10.534;2022-08-07T00:12:39;14.85;;;11.88;;
21733;SDS011;11029;47.820;10.534;2022-08-07T00:15:26;14.05;;;10.48;;
21733;SDS011;11029;47.820;10.534;2022-08-07T00:18:12;13.95;;;11.13;;
21733;SDS011;11029;47.820;10.534;2022-08-07T00:20:45;14.73;;;11.48;;
21733;SDS011;11029;47.820;10.534;2022-08-07T00:23:14;14.85;;;12.50;;
21733;SDS011;11029;47.820;10.534;2022-08-07T00:25:42;15.25;;;11.60;;
21733;SDS011;11029;47.820;10.534;2022-08-07T00:28:18;14.63;;;12.10;;
21733;SDS011;11029;47.820;10.534;2022-08-07T00:30:47;17.23;;;11.70;;
21733;SDS011;11029;47.820;10.534;2022-08-07T00:33:14;13.85;;;11.80;;
21733;SDS011;11029;47.820;10.534;2022-08-07T00:35:41;15.48;;;13.25;;
21733;SDS011;11029;47.820;10.534;2022-08-07T00:38:14;17.92;;;13.05;;
21733;SDS011;11029;47.820;10.534;2022-08-07T00:40:56;17.17;;;14.25;;
21733;SDS011;11029;47.820;10.534;2022-08-07T00:43:24;15.90;;;13.50;;
21733;SDS011;11029;47.820;10.534;2022-08-07T00:46:12;17.08;;;13.38;;
21733;SDS011;11029;47.820;10.534;2022-08-07T00:48:39;16.42;;;14.13;;
21733;SDS011;11029;47.820;10.534;2022-08-07T00:51:07;19.52;;;14.55;;
21733;SDS011;11029;47.820;10.534;2022-08-07T00:53:35;18.95;;;14.95;;
21733;SDS011;11029;47.820;10.534;2022-08-07T00:56:14;19.23;;;15.93;;
21733;SDS011;11029;47.820;10.534;2022-08-07T00:58:41;20.67;;;14.95;;
21733;SDS011;11029;47.820;10.534;2022-08-07T01:01:12;21.08;;;16.52;;
21733;SDS011;11029;47.820;10.534;2022-08-07T01:03:41;21.38;;;16.00;;
21733;SDS011;11029;47.820;10.534;2022-08-07T01:06:25;18.90;;;14.50;;
21733;SDS011;11029;47.820;10.534;2022-08-07T01:08:53;17.80;;;14.65;;
21733;SDS011;11029;47.820;10.534;2022-08-07T01:11:24;19.85;;;14.90;;
21733;SDS011;11029;47.820;10.534;2022-08-07T01:14:11;17.67;;;14.82;;
21733;SDS011;11029;47.820;10.534;2022-08-07T01:16:42;18.65;;;14.65;;
21733;SDS011;11029;47.820;10.534;2022-08-07T01:19:15;20.02;;;15.68;;
21733;SDS011;11029;47.820;10.534;2022-08-07T01:21:47;19.52;;;15.25;;
21733;SDS011;11029;47.820;10.534;2022-08-07T01:24:23;18.48;;;14.48;;
21733;SDS011;11029;47.820;10.534;2022-08-07T01:26:51;20.25;;;14.80;;
21733;SDS011;11029;47.820;10.534;2022-08-07T01:29:26;17.25;;;14.13;;
21733;SDS011;11029;47.820;10.534;2022-08-07T01:32:00;20.33;;;14.82;;
21733;SDS011;11029;47.820;10.534;2022-08-07T01:34:31;17.17;;;13.73;;
21733;SDS011;11029;47.820;10.534;2022-08-07T01:37:04;18.58;;;13.38;;
21733;SDS011;11029;47.820;10.534;2022-08-07T01:39:36;17.23;;;14.47;;
21733;SDS011;11029;47.820;10.534;2022-08-07T01:42:29;16.80;;;12.63;;
21733;SDS011;11029;47.820;10.534;2022-08-07T01:45:16;17.17;;;13.85;;
21733;SDS011;11029;47.820;10.534;2022-08-07T01:47:53;17.77;;;13.48;;
21733;SDS011;11029;47.820;10.534;2022-08-07T01:50:41;16.90;;;13.70;;
21733;SDS011;11029;47.820;10.534;2022-08-07T01:53:15;16.38;;;13.20;;
21733;SDS011;11029;47.820;10.534;2022-08-07T01:55:53;17.13;;;13.40;;
21733;SDS011;11029;47.820;10.534;2022-08-07T01:58:23;15.18;;;12.65;;
21733;SDS011;11029;47.820;10.534;2022-08-07T02:01:01;17.88;;;13.05;;
21733;SDS011;11029;47.820;10.534;2022-08-07T02:03:52;20.58;;;14.10;;
21733;SDS011;11029;47.820;10.534;2022-08-07T02:06:45;17.25;;;12.93;;
21733;SDS011;11029;47.820;10.534;2022-08-07T02:09:14;14.63;;;11.98;;
21733;SDS011;11029;47.820;10.534;2022-08-07T02:12:04;18.55;;;12.93;;
21733;SDS011;11029;47.820;10.534;2022-08-07T02:14:56;17.37;;;11.80;;
21733;SDS011;11029;47.820;10.534;2022-08-07T02:17:44;14.88;;;11.30;;
21733;SDS011;11029;47.820;10.534;2022-08-07T02:20:17;14.30;;;11.85;;
21733;SDS011;11029;47.820;10.534;2022-08-07T02:22:53;15.75;;;11.73;;
21733;SDS011;11029;47.820;10.534;2022-08-07T02:25:25;15.32;;;11.75;;
21733;SDS011;11029;47.820;10.534;2022-08-07T02:28:14;16.30;;;11.90;;
21733;SDS011;11029;47.820;10.534;2022-08-07T02:30:51;13.50;;;10.57;;
21733;SDS011;11029;47.820;10.534;2022-08-07T02:33:21;13.80;;;11.05;;
21733;SDS011;11029;47.820;10.534;2022-08-07T02:36:07;13.23;;;10.48;;
21733;SDS011;11029;47.820;10.534;2022-08-07T02:38:55;14.38;;;11.00;;
21733;SDS011;11029;47.820;10.534;2022-08-07T02:41:25;16.20;;;10.98;;
21733;SDS011;11029;47.820;10.534;2022-08-07T02:44:03;13.77;;;11.07;;
21733;SDS011;11029;47.820;10.534;2022-08-07T02:46:31;17.27;;;11.40;;
21733;SDS011;11029;47.820;10.534;2022-08-07T02:49:03;13.48;;;10.45;;
21733;SDS011;11029;47.820;10.534;2022-08-07T02:51:31;13.55;;;11.02;;
21733;SDS011;11029;47.820;10.534;2022-08-07T02:54:16;12.40;;;10.55;;
21733;SDS011;11029;47.820;10.534;2022-08-07T02:56:45;13.02;;;10.25;;
21733;SDS011;11029;47.820;10.534;2022-08-07T02:59:17;12.75;;;10.35;;
21733;SDS011;11029;47.820;10.534;2022-08-07T03:01:54;13.82;;;10.25;;
21733;SDS011;11029;47.820;10.534;2022-08-07T03:04:27;12.43;;;10.57;;
21733;SDS011;11029;47.820;10.534;2022-08-07T03:06:58;11.18;;;9.05;;
21733;SDS011;11029;47.820;10.534;2022-08-07T03:09:37;14.52;;;10.60;;
21733;SDS011;11029;47.820;10.534;2022-08-07T03:12:10;11.13;;;8.85;;
21733;SDS011;11029;47.820;10.534;2022-08-07T03:14:49;11.10;;;9.40;;
21733;SDS011;11029;47.820;10.534;2022-08-07T03:17:18;10.95;;;9.30;;
21733;SDS011;11029;47.820;10.534;2022-08-07T03:19:51;11.77;;;9.20;;
21733;SDS011;11029;47.820;10.534;2022-08-07T03:22:23;10.95;;;9.07;;
21733;SDS011;11029;47.820;10.534;2022-08-07T03:24:57;11.88;;;8.70;;
21733;SDS011;11029;47.820;10.534;2022-08-07T03:27:28;10.47;;;8.87;;
21733;SDS011;11029;47.820;10.534;2022-08-07T03:30:15;12.38;;;9.27;;
21733;SDS011;11029;47.820;10.534;2022-08-07T03:32:46;12.93;;;9.35;;
21733;SDS011;11029;47.820;10.534;2022-08-07T03:35:25;11.93;;;9.35;;
21733;SDS011;11029;47.820;10.534;2022-08-07T03:38:13;10.18;;;7.85;;
21733;SDS011;11029;47.820;10.534;2022-08-07T03:40:46;11.00;;;8.43;;
21733;SDS011;11029;47.820;10.534;2022-08-07T03:43:24;12.07;;;7.88;;
21733;SDS011;11029;47.820;10.534;2022-08-07T03:45:59;10.15;;;8.07;;
21733;SDS011;11029;47.820;10.534;2022-08-07T03:48:28;11.38;;;7.20;;
21733;SDS011;11029;47.820;10.534;2022-08-07T03:50:57;10.93;;;7.72;;
21733;SDS011;11029;47.820;10.534;2022-08-07T03:53:33;9.45;;;7.45;;
21733;SDS011;11029;47.820;10.534;2022-08-07T03:56:20;9.02;;;7.90;;
21733;SDS011;11029;47.820;10.534;2022-08-07T03:59:02;12.63;;;7.53;;
21733;SDS011;11029;47.820;10.534;2022-08-07T04:01:42;8.38;;;7.13;;
21733;SDS011;11029;47.820;10.534;2022-08-07T04:04:11;8.48;;;6.88;;
21733;SDS011;11029;47.820;10.534;2022-08-07T04:06:44;8.82;;;6.03;;
21733;SDS011;11029;47.820;10.534;2022-08-07T04:09:16;6.70;;;5.97;;
21733;SDS011;11029;47.820;10.534;2022-08-07T04:11:49;6.90;;;5.28;;
21733;SDS011;11029;47.820;10.534;2022-08-07T04:14:38;8.27;;;5.30;;
21733;SDS011;11029;47.820;10.534;2022-08-07T04:17:12;6.90;;;5.45;;
21733;SDS011;11029;47.820;10.534;2022-08-07T04:19:59;5.82;;;4.50;;
21733;SDS011;11029;47.820;10.534;2022-08-07T04:22:30;7.30;;;5.00;;
21733;SDS011;11029;47.820;10.534;2022-08-07T04:25:02;8.20;;;5.03;;
21733;SDS011;11029;47.820;10.534;2022-08-07T04:27:39;5.32;;;4.82;;
21733;SDS011;11029;47.820;10.534;2022-08-07T04:30:14;7.20;;;3.90;;
21733;SDS011;11029;47.820;10.534;2022-08-07T04:33:09;5.37;;;4.50;;
21733;SDS011;11029;47.820;10.534;2022-08-07T04:35:43;5.35;;;4.35;;
21733;SDS011;11029;47.820;10.534;2022-08-07T04:38:17;4.95;;;4.20;;
21733;SDS011;11029;47.820;10.534;2022-08-07T04:40:46;5.70;;;4.40;;
21733;SDS011;11029;47.820;10.534;2022-08-07T04:43:32;3.95;;;3.65;;
21733;SDS011;11029;47.820;10.534;2022-08-07T04:46:32;3.95;;;3.65;;
21733;SDS011;11029;47.820;10.534;2022-08-07T04:49:29;4.03;;;3.60;;
21733;SDS011;11029;47.820;10.534;2022-08-07T04:52:31;4.60;;;4.20;;
21733;SDS011;11029;47.820;10.534;2022-08-07T04:55:21;6.20;;;3.90;;
21733;SDS011;11029;47.820;10.534;2022-08-07T04:58:33;4.25;;;3.85;;
21733;SDS011;11029;47.820;10.534;2022-08-07T05:01:45;7.88;;;4.05;;
21733;SDS011;11029;47.820;10.534;2022-08-07T05:04:25;4.10;;;3.70;;
21733;SDS011;11029;47.820;10.534;2022-08-07T05:07:23;5.03;;;4.03;;
21733;SDS011;11029;47.820;10.534;2022-08-07T05:10:11;4.32;;;3.50;;
21733;SDS011;11029;47.820;10.534;2022-08-07T05:12:47;7.40;;;4.60;;
21733;SDS011;11029;47.820;10.534;2022-08-07T05:15:47;4.00;;;3.63;;
21733;SDS011;11029;47.820;10.534;2022-08-07T05:18:20;4.00;;;3.67;;
21733;SDS011;11029;47.820;10.534;2022-08-07T05:21:02;4.10;;;3.80;;
21733;SDS011;11029;47.820;10.534;2022-08-07T05:23:37;4.28;;;3.50;;
21733;SDS011;11029;47.820;10.534;2022-08-07T05:26:41;4.88;;;3.60;;
21733;SDS011;11029;47.820;10.534;2022-08-07T05:29:05;4.00;;;3.65;;
21733;SDS011;11029;47.820;10.534;2022-08-07T05:31:37;3.47;;;3.17;;
21733;SDS011;11029;47.820;10.534;2022-08-07T05:34:18;7.35;;;3.72;;
21733;SDS011;11029;47.820;10.534;2022-08-07T05:36:52;3.88;;;3.58;;
21733;SDS011;11029;47.820;10.534;2022-08-07T05:39:26;5.95;;;3.63;;
21733;SDS011;11029;47.820;10.534;2022-08-07T05:42:14;4.90;;;3.35;;
21733;SDS011;11029;47.820;10.534;2022-08-07T05:45:00;3.65;;;3.35;;
21733;SDS011;11029;47.820;10.534;2022-08-07T05:47:50;3.90;;;3.45;;
21733;SDS011;11029;47.820;10.534;2022-08-07T05:50:31;3.67;;;3.33;;
21733;SDS011;11029;47.820;10.534;2022-08-07T05:53:00;4.38;;;3.95;;
21733;SDS011;11029;47.820;10.534;2022-08-07T05:55:29;4.30;;;3.88;;
21733;SDS011;11029;47.820;10.534;2022-08-07T05:58:19;4.28;;;3.63;;
21733;SDS011;11029;47.820;10.534;2022-08-07T06:01:04;4.53;;;3.45;;
21733;SDS011;11029;47.820;10.534;2022-08-07T06:03:37;3.80;;;3.50;;
21733;SDS011;11029;47.820;10.534;2022-08-07T06:06:27;4.30;;;3.60;;
21733;SDS011;11029;47.820;10.534;2022-08-07T06:08:59;5.40;;;3.90;;
21733;SDS011;11029;47.820;10.534;2022-08-07T06:11:32;4.03;;;3.60;;
21733;SDS011;11029;47.820;10.534;2022-08-07T06:13:59;4.82;;;4.35;;
21733;SDS011;11029;47.820;10.534;2022-08-07T06:16:39;4.20;;;3.78;;
21733;SDS011;11029;47.820;10.534;2022-08-07T06:19:17;4.88;;;3.97;;
21733;SDS011;11029;47.820;10.534;2022-08-07T06:22:05;4.63;;;3.65;;
21733;SDS011;11029;47.820;10.534;2022-08-07T06:24:56;5.22;;;4.07;;
21733;SDS011;11029;47.820;10.534;2022-08-07T06:27:27;5.88;;;3.33;;
21733;SDS011;11029;47.820;10.534;2022-08-07T06:30:14;4.30;;;3.88;;
21733;SDS011;11029;47.820;10.534;2022-08-07T06:33:04;5.13;;;4.63;;
21733;SDS011;11029;47.820;10.534;2022-08-07T06:35:42;4.50;;;4.03;;
21733;SDS011;11029;47.820;10.534;2022-08-07T06:38:29;5.68;;;4.13;;
21733;SDS011;11029;47.820;10.534;2022-08-07T06:40:56;4.30;;;3.95;;
21733;SDS011;11029;47.820;10.534;2022-08-07T06:43:27;4.28;;;3.80;;
21733;SDS011;11029;47.820;10.534;2022-08-07T06:46:10;5.78;;;4.15;;
21733;SDS011;11029;47.820;10.534;2022-08-07T06:48:39;5.00;;;3.70;;
21733;SDS011;11029;47.820;10.534;2022-08-07T06:51:13;4.53;;;4.07;;
21733;SDS011;11029;47.820;10.534;2022-08-07T06:54:00;5.05;;;4.20;;
21733;SDS011;11029;47.820;10.534;2022-08-07T06:56:49;4.57;;;4.15;;
21733;SDS011;11029;47.820;10.534;2022-08-07T06:59:58;4.35;;;3.83;;
21733;SDS011;11029;47.820;10.534;2022-08-07T07:05:23;4.63;;;3.75;;
21733;SDS011;11029;47.820;10.534;2022-08-07T07:08:10;3.90;;;3.40;;
21733;SDS011;11029;47.820;10.534;2022-08-07T07:10:51;3.70;;;3.40;;
21733;SDS011;11029;47.820;10.534;2022-08-07T07:13:26;3.85;;;3.13;;
21733;SDS011;11029;47.820;10.534;2022-08-07T07:16:17;5.60;;;3.22;;
21733;SDS011;11029;47.820;10.534;2022-08-07T07:18:47;3.55;;;3.22;;
21733;SDS011;11029;47.820;10.534;2022-08-07T07:21:22;4.30;;;2.90;;
21733;SDS011;11029;47.820;10.534;2022-08-07T07:24:05;7.78;;;3.10;;
21733;SDS011;11029;47.820;10.534;2022-08-07T07:26:38;3.92;;;2.90;;
21733;SDS011;11029;47.820;10.534;2022-08-07T07:29:17;5.85;;;3.33;;
21733;SDS011;11029;47.820;10.534;2022-08-07T07:32:08;3.10;;;2.90;;
21733;SDS011;11029;47.820;10.534;2022-08-07T07:34:44;4.25;;;3.30;;
21733;SDS011;11029;47.820;10.534;2022-08-07T07:37:14;3.55;;;3.10;;
21733;SDS011;11029;47.820;10.534;2022-08-07T07:40:03;4.10;;;3.05;;
21733;SDS011;11029;47.820;10.534;2022-08-07T07:42:40;3.92;;;3.10;;
21733;SDS011;11029;47.820;10.534;2022-08-07T07:45:20;3.97;;;3.17;;
21733;SDS011;11029;47.820;10.534;2022-08-07T07:48:10;4.15;;;3.30;;
21733;SDS011;11029;47.820;10.534;2022-08-07T07:51:00;3.45;;;3.08;;
21733;SDS011;11029;47.820;10.534;2022-08-07T07:53:35;5.50;;;3.28;;
21733;SDS011;11029;47.820;10.534;2022-08-07T07:56:19;4.75;;;3.00;;
21733;SDS011;11029;47.820;10.534;2022-08-07T07:58:55;3.30;;;2.95;;
21733;SDS011;11029;47.820;10.534;2022-08-07T08:01:27;3.45;;;3.15;;
21733;SDS011;11029;47.820;10.534;2022-08-07T08:04:16;5.57;;;3.70;;
21733;SDS011;11029;47.820;10.534;2022-08-07T08:06:50;4.88;;;3.22;;
21733;SDS011;11029;47.820;10.534;2022-08-07T08:09:22;3.70;;;3.40;;
21733;SDS011;11029;47.820;10.534;2022-08-07T08:11:55;3.78;;;2.95;;
21733;SDS011;11029;47.820;10.534;2022-08-07T08:14:33;4.53;;;3.60;;
21733;SDS011;11029;47.820;10.534;2022-08-07T08:17:03;4.32;;;3.20;;
21733;SDS011;11029;47.820;10.534;2022-08-07T08:19:54;3.58;;;3.28;;
21733;SDS011;11029;47.820;10.534;2022-08-07T08:25:35;4.47;;;2.90;;
21733;SDS011;11029;47.820;10.534;2022-08-07T08:28:26;4.53;;;2.88;;
21733;SDS011;11029;47.820;10.534;2022-08-07T08:31:04;4.70;;;2.92;;
21733;SDS011;11029;47.820;10.534;2022-08-07T08:33:41;4.50;;;2.67;;
21733;SDS011;11029;47.820;10.534;2022-08-07T08:36:14;3.50;;;2.95;;
21733;SDS011;11029;47.820;10.534;2022-08-07T08:38:50;4.47;;;2.53;;
21733;SDS011;11029;47.820;10.534;2022-08-07T08:44:26;3.30;;;2.88;;
21733;SDS011;11029;47.820;10.534;2022-08-07T08:50:20;3.83;;;2.85;;
21733;SDS011;11029;47.820;10.534;2022-08-07T08:53:15;3.35;;;2.95;;
21733;SDS011;11029;47.820;10.534;2022-08-07T08:55:56;3.58;;;3.08;;
21733;SDS011;11029;47.820;10.534;2022-08-07T09:04:10;3.75;;;3.13;;
21733;SDS011;11029;47.820;10.534;2022-08-07T09:06:53;3.78;;;2.97;;
21733;SDS011;11029;47.820;10.534;2022-08-07T09:21:01;3.00;;;2.80;;
21733;SDS011;11029;47.820;10.534;2022-08-07T09:24:03;5.20;;;3.08;;
21733;SDS011;11029;47.820;10.534;2022-08-07T09:27:08;2.85;;;2.60;;
21733;SDS011;11029;47.820;10.534;2022-08-07T09:30:17;2.72;;;2.53;;
21733;SDS011;11029;47.820;10.534;2022-08-07T09:36:11;3.20;;;2.95;;
21733;SDS011;11029;47.820;10.534;2022-08-07T09:39:10;2.97;;;2.42;;
21733;SDS011;11029;47.820;10.534;2022-08-07T09:42:13;3.03;;;2.75;;
21733;SDS011;11029;47.820;10.534;2022-08-07T09:48:26;3.60;;;2.28;;
21733;SDS011;11029;47.820;10.534;2022-08-07T09:54:37;3.88;;;2.60;;
21733;SDS011;11029;47.820;10.534;2022-08-07T09:57:43;4.78;;;2.80;;
21733;SDS011;11029;47.820;10.534;2022-08-07T10:00:18;2.97;;;2.67;;
21733;SDS011;11029;47.820;10.534;2022-08-07T10:15:23;2.80;;;2.45;;
21733;SDS011;11029;47.820;10.534;2022-08-07T10:26:54;3.45;;;2.40;;
21733;SDS011;11029;47.820;10.534;2022-08-07T10:32:42;3.95;;;2.45;;
21733;SDS011;11029;47.820;10.534;2022-08-07T10:35:35;2.53;;;2.33;;
21733;SDS011;11029;47.820;10.534;2022-08-07T10:41:32;2.67;;;2.40;;
21733;SDS011;11029;47.820;10.534;2022-08-07T10:47:10;2.97;;;2.30;;
21733;SDS011;11029;47.820;10.534;2022-08-07T10:50:22;2.95;;;2.70;;
21733;SDS011;11029;47.820;10.534;2022-08-07T10:58:38;2.47;;;2.28;;
21733;SDS011;11029;47.820;10.534;2022-08-07T11:10:27;2.35;;;2.22;;
21733;SDS011;11029;47.820;10.534;2022-08-07T11:13:05;2.90;;;2.70;;
21733;SDS011;11029;47.820;10.534;2022-08-07T11:16:01;2.70;;;2.50;;
21733;SDS011;11029;47.820;10.534;2022-08-07T11:21:26;2.70;;;2.50;;
21733;SDS011;11029;47.820;10.534;2022-08-07T11:24:21;3.17;;;2.60;;
21733;SDS011;11029;47.820;10.534;2022-08-07T11:27:12;2.92;;;2.67;;
21733;SDS011;11029;47.820;10.534;2022-08-07T11:30:15;3.67;;;2.95;;
21733;SDS011;11029;47.820;10.534;2022-08-07T11:35:53;4.90;;;2.97;;
21733;SDS011;11029;47.820;10.534;2022-08-07T11:38:42;2.63;;;2.40;;
21733;SDS011;11029;47.820;10.534;2022-08-07T11:41:21;2.90;;;2.70;;
21733;SDS011;11029;47.820;10.534;2022-08-07T11:45:08;2.95;;;2.60;;
21733;SDS011;11029;47.820;10.534;2022-08-07T11:47:28;3.00;;;2.70;;
21733;SDS011;11029;47.820;10.534;2022-08-07T11:50:32;2.95;;;2.70;;
21733;SDS011;11029;47.820;10.534;2022-08-07T11:56:44;2.90;;;2.42;;
21733;SDS011;11029;47.820;10.534;2022-08-07T12:02:27;2.50;;;2.30;;
21733;SDS011;11029;47.820;10.534;2022-08-07T12:05:01;4.88;;;2.58;;
21733;SDS011;11029;47.820;10.534;2022-08-07T12:08:10;3.05;;;2.72;;
21733;SDS011;11029;47.820;10.534;2022-08-07T12:11:12;3.67;;;2.78;;
21733;SDS011;11029;47.820;10.534;2022-08-07T12:16:28;3.22;;;2.65;;
21733;SDS011;11029;47.820;10.534;2022-08-07T12:19:16;3.60;;;2.42;;
21733;SDS011;11029;47.820;10.534;2022-08-07T12:22:22;3.92;;;2.60;;
21733;SDS011;11029;47.820;10.534;2022-08-07T12:25:31;4.70;;;2.65;;
21733;SDS011;11029;47.820;10.534;2022-08-07T12:31:28;2.72;;;2.38;;
21733;SDS011;11029;47.820;10.534;2022-08-07T12:34:33;3.15;;;2.40;;
21733;SDS011;11029;47.820;10.534;2022-08-07T12:37:04;2.40;;;2.20;;
21733;SDS011;11029;47.820;10.534;2022-08-07T12:39:48;2.75;;;2.55;;
21733;SDS011;11029;47.820;10.534;2022-08-07T12:42:19;2.50;;;2.30;;
21733;SDS011;11029;47.820;10.534;2022-08-07T12:44:56;2.97;;;2.30;;
21733;SDS011;11029;47.820;10.534;2022-08-07T12:50:28;2.90;;;2.60;;
21733;SDS011;11029;47.820;10.534;2022-08-07T12:53:17;3.78;;;2.35;;
21733;SDS011;11029;47.820;10.534;2022-08-07T12:56:25;4.07;;;2.08;;
21733;SDS011;11029;47.820;10.534;2022-08-07T12:58:58;2.65;;;2.40;;
21733;SDS011;11029;47.820;10.534;2022-08-07T13:13:32;5.30;;;4.90;;
21733;SDS011;11029;47.820;10.534;2022-08-07T13:19:22;2.78;;;2.58;;
21733;SDS011;11029;47.820;10.534;2022-08-07T13:22:26;2.47;;;2.33;;
21733;SDS011;11029;47.820;10.534;2022-08-07T13:27:45;4.07;;;3.70;;
21733;SDS011;11029;47.820;10.534;2022-08-07T13:30:37;3.28;;;2.60;;
21733;SDS011;11029;47.820;10.534;2022-08-07T13:33:23;3.40;;;2.67;;
21733;SDS011;11029;47.820;10.534;2022-08-07T13:36:19;2.90;;;2.67;;
21733;SDS011;11029;47.820;10.534;2022-08-07T13:39:24;2.63;;;2.35;;
21733;SDS011;11029;47.820;10.534;2022-08-07T13:42:15;3.22;;;2.20;;
21733;SDS011;11029;47.820;10.534;2022-08-07T13:44:50;2.45;;;2.10;;
21733;SDS011;11029;47.820;10.534;2022-08-07T13:47:38;3.03;;;2.10;;
21733;SDS011;11029;47.820;10.534;2022-08-07T13:50:27;3.28;;;2.30;;
21733;SDS011;11029;47.820;10.534;2022-08-07T13:53:09;2.58;;;2.38;;
21733;SDS011;11029;47.820;10.534;2022-08-07T13:55:48;4.07;;;2.33;;
21733;SDS011;11029;47.820;10.534;2022-08-07T13:58:21;2.92;;;2.53;;
21733;SDS011;11029;47.820;10.534;2022-08-07T14:01:22;2.20;;;2.10;;
21733;SDS011;11029;47.820;10.534;2022-08-07T14:03:51;2.58;;;2.33;;
21733;SDS011;11029;47.820;10.534;2022-08-07T14:06:34;3.42;;;2.25;;
21733;SDS011;11029;47.820;10.534;2022-08-07T14:09:03;8.38;;;5.82;;
21733;SDS011;11029;47.820;10.534;2022-08-07T14:11:43;5.70;;;3.45;;
21733;SDS011;11029;47.820;10.534;2022-08-07T14:14:29;3.40;;;3.10;;
21733;SDS011;11029;47.820;10.534;2022-08-07T14:17:08;5.27;;;3.83;;
21733;SDS011;11029;47.820;10.534;2022-08-07T14:20:05;5.43;;;2.70;;
21733;SDS011;11029;47.820;10.534;2022-08-07T14:23:02;3.55;;;2.78;;
21733;SDS011;11029;47.820;10.534;2022-08-07T14:25:35;4.60;;;3.25;;
21733;SDS011;11029;47.820;10.534;2022-08-07T14:28:13;3.42;;;2.38;;
21733;SDS011;11029;47.820;10.534;2022-08-07T14:30:46;2.80;;;2.60;;
21733;SDS011;11029;47.820;10.534;2022-08-07T14:33:17;3.60;;;2.53;;
21733;SDS011;11029;47.820;10.534;2022-08-07T14:35:52;2.55;;;2.38;;
21733;SDS011;11029;47.820;10.534;2022-08-07T14:38:24;2.53;;;2.38;;
21733;SDS011;11029;47.820;10.534;2022-08-07T14:41:06;4.18;;;3.33;;
21733;SDS011;11029;47.820;10.534;2022-08-07T14:43:41;10.27;;;7.60;;
21733;SDS011;11029;47.820;10.534;2022-08-07T14:46:30;8.98;;;5.30;;
21733;SDS011;11029;47.820;10.534;2022-08-07T14:49:02;3.42;;;3.00;;
21733;SDS011;11029;47.820;10.534;2022-08-07T14:51:49;3.22;;;2.92;;
21733;SDS011;11029;47.820;10.534;2022-08-07T14:54:31;4.22;;;2.70;;
21733;SDS011;11029;47.820;10.534;2022-08-07T14:57:19;2.83;;;2.63;;
21733;SDS011;11029;47.820;10.534;2022-08-07T15:00:02;3.53;;;2.47;;
21733;SDS011;11029;47.820;10.534;2022-08-07T15:02:32;2.65;;;2.42;;
21733;SDS011;11029;47.820;10.534;2022-08-07T15:05:04;2.50;;;2.30;;
21733;SDS011;11029;47.820;10.534;2022-08-07T15:07:46;2.30;;;2.10;;
21733;SDS011;11029;47.820;10.534;2022-08-07T15:10:22;2.30;;;2.20;;
21733;SDS011;11029;47.820;10.534;2022-08-07T15:12:57;2.30;;;2.10;;
21733;SDS011;11029;47.820;10.534;2022-08-07T15:15:40;2.60;;;2.40;;
21733;SDS011;11029;47.820;10.534;2022-08-07T15:18:32;3.05;;;2.30;;
21733;SDS011;11029;47.820;10.534;2022-08-07T15:21:10;3.35;;;2.60;;
21733;SDS011;11029;47.820;10.534;2022-08-07T15:24:23;2.45;;;2.30;;
21733;SDS011;11029;47.820;10.534;2022-08-07T15:27:21;2.80;;;2.35;;
21733;SDS011;11029;47.820;10.534;2022-08-07T15:29:53;2.28;;;2.17;;
21733;SDS011;11029;47.820;10.534;2022-08-07T15:32:49;2.45;;;2.25;;
21733;SDS011;11029;47.820;10.534;2022-08-07T15:35:31;4.50;;;2.17;;
21733;SDS011;11029;47.820;10.534;2022-08-07T15:38:23;2.85;;;2.00;;
21733;SDS011;11029;47.820;10.534;2022-08-07T15:41:14;2.90;;;2.30;;
21733;SDS011;11029;47.820;10.534;2022-08-07T15:44:08;2.20;;;2.00;;
21733;SDS011;11029;47.820;10.534;2022-08-07T15:46:38;2.10;;;2.00;;
21733;SDS011;11029;47.820;10.534;2022-08-07T15:49:28;2.33;;;2.13;;
21733;SDS011;11029;47.820;10.534;2022-08-07T15:52:19;2.67;;;2.30;;
21733;SDS011;11029;47.820;10.534;2022-08-07T15:54:56;3.10;;;2.40;;
21733;SDS011;11029;47.820;10.534;2022-08-07T15:57:29;2.53;;;2.40;;
21733;SDS011;11029;47.820;10.534;2022-08-07T16:00:14;2.55;;;2.35;;
21733;SDS011;11029;47.820;10.534;2022-08-07T16:03:00;2.80;;;2.60;;
21733;SDS011;11029;47.820;10.534;2022-08-07T16:05:29;3.97;;;2.63;;
21733;SDS011;11029;47.820;10.534;2022-08-07T16:08:08;2.55;;;2.35;;
21733;SDS011;11029;47.820;10.534;2022-08-07T16:11:02;2.90;;;2.70;;
21733;SDS011;11029;47.820;10.534;2022-08-07T16:16:33;3.38;;;2.70;;
21733;SDS011;11029;47.820;10.534;2022-08-07T16:25:16;2.80;;;2.60;;
21733;SDS011;11029;47.820;10.534;2022-08-07T16:46:38;3.40;;;2.50;;
21733;SDS011;11029;47.820;10.534;2022-08-07T16:58:31;2.53;;;2.33;;
21733;SDS011;11029;47.820;10.534;2022-08-07T17:15:15;5.65;;;2.88;;
21733;SDS011;11029;47.820;10.534;2022-08-07T17:20:34;3.40;;;3.10;;
21733;SDS011;11029;47.820;10.534;2022-08-07T17:34:44;3.00;;;2.80;;
21733;SDS011;11029;47.820;10.534;2022-08-07T17:37:44;2.90;;;2.60;;
21733;SDS011;11029;47.820;10.534;2022-08-07T17:40:45;3.08;;;2.70;;
21733;SDS011;11029;47.820;10.534;2022-08-07T17:43:47;3.60;;;2.85;;
21733;SDS011;11029;47.820;10.534;2022-08-07T17:46:42;4.45;;;2.90;;
21733;SDS011;11029;47.820;10.534;2022-08-07T17:49:21;5.28;;;2.92;;
21733;SDS011;11029;47.820;10.534;2022-08-07T17:52:33;2.78;;;2.58;;
21733;SDS011;11029;47.820;10.534;2022-08-07T17:55:15;3.05;;;2.75;;
21733;SDS011;11029;47.820;10.534;2022-08-07T17:58:06;6.57;;;3.08;;
21733;SDS011;11029;47.820;10.534;2022-08-07T18:00:56;3.47;;;3.13;;
21733;SDS011;11029;47.820;10.534;2022-08-07T18:03:32;3.35;;;3.05;;
21733;SDS011;11029;47.820;10.534;2022-08-07T18:06:34;3.08;;;2.78;;
21733;SDS011;11029;47.820;10.534;2022-08-07T18:09:08;2.95;;;2.75;;
21733;SDS011;11029;47.820;10.534;2022-08-07T18:12:22;2.70;;;2.30;;
21733;SDS011;11029;47.820;10.534;2022-08-07T18:15:07;2.92;;;2.72;;
21733;SDS011;11029;47.820;10.534;2022-08-07T18:20:37;2.95;;;2.70;;
21733;SDS011;11029;47.820;10.534;2022-08-07T18:23:39;3.05;;;2.85;;
21733;SDS011;11029;47.820;10.534;2022-08-07T18:29:08;2.97;;;2.78;;
21733;SDS011;11029;47.820;10.534;2022-08-07T18:47:37;6.50;;;4.60;;
21733;SDS011;11029;47.820;10.534;2022-08-07T18:53:31;4.78;;;4.30;;
21733;SDS011;11029;47.820;10.534;2022-08-07T18:56:33;3.88;;;2.90;;
21733;SDS011;11029;47.820;10.534;2022-08-07T18:59:32;3.47;;;2.75;;
21733;SDS011;11029;47.820;10.534;2022-08-07T19:02:46;3.25;;;2.95;;
21733;SDS011;11029;47.820;10.534;2022-08-07T19:05:26;4.30;;;3.90;;
21733;SDS011;11029;47.820;10.534;2022-08-07T19:11:35;3.85;;;3.50;;
21733;SDS011;11029;47.820;10.534;2022-08-07T19:14:38;4.70;;;3.13;;
21733;SDS011;11029;47.820;10.534;2022-08-07T19:17:30;3.63;;;3.33;;
21733;SDS011;11029;47.820;10.534;2022-08-07T19:20:31;3.75;;;3.10;;
21733;SDS011;11029;47.820;10.534;2022-08-07T19:23:27;3.55;;;3.25;;
21733;SDS011;11029;47.820;10.534;2022-08-07T19:26:19;3.78;;;2.70;;
21733;SDS011;11029;47.820;10.534;2022-08-07T19:28:57;3.67;;;2.90;;
21733;SDS011;11029;47.820;10.534;2022-08-07T19:31:50;3.47;;;2.70;;
21733;SDS011;11029;47.820;10.534;2022-08-07T19:34:50;4.57;;;2.75;;